createdAt,value
2019-01-17T00:01:08.605Z,13.08
2019-01-17T00:03:43.344Z,12.73
2019-01-17T00:06:12.644Z,12.80
2019-01-17T00:08:56.810Z,14.13
2019-01-17T00:11:26.093Z,13.10
2019-01-17T00:13:58.417Z,12.93
2019-01-17T00:16:30.501Z,13.45
2019-01-17T00:19:15.836Z,12.60
2019-01-17T00:21:47.842Z,13.08
2019-01-17T00:24:16.968Z,13.45
2019-01-17T00:27:01.425Z,14.15
2019-01-17T00:29:30.848Z,11.43
2019-01-17T00:32:06.889Z,12.50
2019-01-17T00:34:41.764Z,12.35
2019-01-17T00:37:20.779Z,11.40
2019-01-17T00:39:55.756Z,11.73
2019-01-17T00:42:31.262Z,12.25
2019-01-17T00:45:00.905Z,11.35
2019-01-17T00:47:30.133Z,13.05
2019-01-17T00:50:15.825Z,11.93
2019-01-17T00:52:51.093Z,12.10
2019-01-17T00:55:20.306Z,12.55
2019-01-17T00:57:49.668Z,12.63
2019-01-17T01:00:24.361Z,11.38
2019-01-17T01:03:02.502Z,11.85
2019-01-17T01:05:49.687Z,11.60
2019-01-17T01:08:36.669Z,11.88
2019-01-17T01:11:11.921Z,10.48
2019-01-17T01:13:43.960Z,10.88
2019-01-17T01:16:19.040Z,10.30
2019-01-17T01:18:54.332Z,10.00
2019-01-17T01:21:23.802Z,10.18
2019-01-17T01:24:15.333Z,10.03
2019-01-17T01:26:43.525Z,10.72
2019-01-17T01:29:12.771Z,11.15
2019-01-17T01:31:48.272Z,9.95
2019-01-17T01:34:29.178Z,10.40
2019-01-17T01:37:14.908Z,10.35
2019-01-17T01:39:44.122Z,10.00
2019-01-17T01:42:19.038Z,10.72
2019-01-17T01:44:51.257Z,11.30
2019-01-17T01:47:32.551Z,9.65
2019-01-17T01:50:10.938Z,11.53
2019-01-17T01:52:43.334Z,10.23
2019-01-17T01:55:11.165Z,11.70
2019-01-17T01:57:38.879Z,9.70
2019-01-17T02:00:10.708Z,10.68
2019-01-17T02:02:38.430Z,11.70
2019-01-17T02:05:06.065Z,9.53
2019-01-17T02:07:34.012Z,10.90
2019-01-17T02:10:01.810Z,12.37
2019-01-17T02:12:29.356Z,11.28
2019-01-17T02:14:56.861Z,11.15
2019-01-17T02:17:26.739Z,11.33
2019-01-17T02:19:55.008Z,12.88
2019-01-17T02:22:22.572Z,11.18
2019-01-17T02:24:50.103Z,11.85
2019-01-17T02:27:17.614Z,11.83
2019-01-17T02:29:45.336Z,12.45
2019-01-17T02:32:13.119Z,12.05
2019-01-17T02:34:40.715Z,13.22
2019-01-17T02:37:08.422Z,14.53
2019-01-17T02:39:36.146Z,12.82
2019-01-17T02:42:03.831Z,14.23
2019-01-17T02:44:32.031Z,15.60
2019-01-17T02:46:59.987Z,15.32
2019-01-17T02:49:29.298Z,16.42
2019-01-17T02:51:57.174Z,14.25
2019-01-17T02:54:24.941Z,15.53
2019-01-17T02:56:52.746Z,14.93
2019-01-17T02:59:20.583Z,15.10
2019-01-17T03:01:48.233Z,15.53
2019-01-17T03:04:15.914Z,13.03
2019-01-17T03:06:43.566Z,13.95
2019-01-17T03:09:11.117Z,13.70
2019-01-17T03:11:38.786Z,13.28
2019-01-17T03:14:06.432Z,12.13
2019-01-17T03:16:34.231Z,12.37
2019-01-17T03:19:02.883Z,11.95
2019-01-17T03:21:30.314Z,11.10
2019-01-17T03:23:57.917Z,11.05
2019-01-17T03:26:25.430Z,12.28
2019-01-17T03:28:53.088Z,12.13
2019-01-17T03:31:20.507Z,10.85
2019-01-17T03:33:48.394Z,11.20
2019-01-17T03:36:15.918Z,12.10
2019-01-17T03:38:43.585Z,11.75
2019-01-17T03:41:11.456Z,11.70
2019-01-17T03:43:39.167Z,12.00
2019-01-17T03:46:06.793Z,13.15
2019-01-17T03:48:34.765Z,12.50
2019-01-17T03:51:02.396Z,11.95
2019-01-17T03:53:30.205Z,11.08
2019-01-17T03:55:57.957Z,11.57
2019-01-17T03:58:25.636Z,11.95
2019-01-17T04:00:53.258Z,11.35
2019-01-17T04:03:22.017Z,10.23
2019-01-17T04:05:49.632Z,11.22
2019-01-17T04:08:17.259Z,10.95
2019-01-17T04:10:44.936Z,10.10
2019-01-17T04:13:12.601Z,10.50
2019-01-17T04:15:40.498Z,9.65
2019-01-17T04:18:08.553Z,9.13
2019-01-17T04:20:36.101Z,9.68
2019-01-17T04:23:04.078Z,8.83
2019-01-17T04:25:33.626Z,9.58
2019-01-17T04:28:00.924Z,8.98
2019-01-17T04:30:29.123Z,9.20
2019-01-17T04:32:56.909Z,10.05
2019-01-17T04:35:24.752Z,9.70
2019-01-17T04:37:52.618Z,9.50
2019-01-17T04:40:20.308Z,9.13
2019-01-17T04:42:47.959Z,9.88
2019-01-17T04:45:16.536Z,9.15
2019-01-17T04:47:44.738Z,9.50
2019-01-17T04:50:13.163Z,8.08
2019-01-17T04:52:41.285Z,8.75
2019-01-17T04:55:09.560Z,8.70
2019-01-17T04:57:37.125Z,7.70
2019-01-17T05:00:15.075Z,6.20
2019-01-17T05:02:43.898Z,6.15
2019-01-17T05:05:12.087Z,6.17
2019-01-17T05:07:40.794Z,5.65
2019-01-17T05:10:09.994Z,5.10
2019-01-17T05:12:37.758Z,5.28
2019-01-17T05:15:06.246Z,4.95
2019-01-17T05:17:34.649Z,4.35
2019-01-17T05:20:04.127Z,5.10
2019-01-17T05:22:31.738Z,4.60
2019-01-17T05:24:59.191Z,4.62
2019-01-17T05:27:28.648Z,4.00
2019-01-17T05:29:56.792Z,4.85
2019-01-17T05:32:24.596Z,4.30
2019-01-17T05:34:52.171Z,4.30
2019-01-17T05:37:19.907Z,4.20
2019-01-17T05:39:48.412Z,5.15
2019-01-17T05:42:16.192Z,4.40
2019-01-17T05:44:43.826Z,5.42
2019-01-17T05:47:12.447Z,4.00
2019-01-17T05:49:40.348Z,4.78
2019-01-17T05:52:07.845Z,5.10
2019-01-17T05:54:35.466Z,4.42
2019-01-17T05:57:02.959Z,4.25
2019-01-17T05:59:30.386Z,3.95
2019-01-17T06:01:57.868Z,4.65
2019-01-17T06:04:25.330Z,4.65
2019-01-17T06:06:53.033Z,5.05
2019-01-17T06:09:20.406Z,4.40
2019-01-17T06:11:48.273Z,4.50
2019-01-17T06:14:15.780Z,4.33
2019-01-17T06:16:43.278Z,5.05
2019-01-17T06:19:11.045Z,4.40
2019-01-17T06:21:38.525Z,4.47
2019-01-17T06:24:06.558Z,6.67
2019-01-17T06:26:34.133Z,4.60
2019-01-17T06:29:01.615Z,6.60
2019-01-17T06:31:29.562Z,5.47
2019-01-17T06:33:57.018Z,5.53
2019-01-17T06:36:24.439Z,6.22
2019-01-17T06:38:51.990Z,6.33
2019-01-17T06:41:19.715Z,6.15
2019-01-17T06:43:47.156Z,6.78
2019-01-17T06:46:14.550Z,7.00
2019-01-17T06:48:42.044Z,6.15
2019-01-17T06:51:09.458Z,6.28
2019-01-17T06:53:36.869Z,7.75
2019-01-17T06:56:04.365Z,6.70
2019-01-17T06:58:31.894Z,6.72
2019-01-17T07:00:59.297Z,7.15
2019-01-17T07:03:26.723Z,6.53
2019-01-17T07:05:54.199Z,7.25
2019-01-17T07:08:21.651Z,8.55
2019-01-17T07:10:49.411Z,7.42
2019-01-17T07:13:16.828Z,7.80
2019-01-17T07:15:44.631Z,7.45
2019-01-17T07:18:12.502Z,7.25
2019-01-17T07:20:40.262Z,7.78
2019-01-17T07:23:08.137Z,7.55
2019-01-17T07:25:41.043Z,6.60
2019-01-17T07:28:04.973Z,7.95
2019-01-17T07:30:32.394Z,8.10
2019-01-17T07:33:00.120Z,7.47
2019-01-17T07:35:27.580Z,7.40
2019-01-17T07:37:55.065Z,7.65
2019-01-17T07:40:22.535Z,7.45
2019-01-17T07:42:50.065Z,7.40
2019-01-17T07:45:18.882Z,6.72
2019-01-17T07:47:46.357Z,7.33
2019-01-17T07:50:14.679Z,8.23
2019-01-17T07:52:42.190Z,7.50
2019-01-17T07:55:09.785Z,6.40
2019-01-17T07:57:37.304Z,6.92
2019-01-17T08:00:06.571Z,7.20
2019-01-17T08:02:33.996Z,6.72
2019-01-17T08:05:01.438Z,6.37
2019-01-17T08:07:28.943Z,7.55
2019-01-17T08:09:56.383Z,7.28
2019-01-17T08:12:25.694Z,6.78
2019-01-17T08:14:53.567Z,7.97
2019-01-17T08:17:21.028Z,7.65
2019-01-17T08:19:48.493Z,7.65
2019-01-17T08:22:16.252Z,7.70
2019-01-17T08:24:43.673Z,8.35
2019-01-17T08:27:11.476Z,8.08
2019-01-17T08:29:39.273Z,8.10
2019-01-17T08:32:06.770Z,8.75
2019-01-17T08:34:34.216Z,8.23
2019-01-17T08:37:02.018Z,7.33
2019-01-17T08:39:29.490Z,7.42
2019-01-17T08:41:56.882Z,8.10
2019-01-17T08:44:24.297Z,8.50
2019-01-17T08:46:51.754Z,7.53
2019-01-17T08:49:19.170Z,7.95
2019-01-17T08:51:46.873Z,7.90
2019-01-17T08:54:14.342Z,8.65
2019-01-17T08:56:41.811Z,8.20
2019-01-17T08:59:09.219Z,8.48
2019-01-17T09:01:36.633Z,8.40
2019-01-17T09:04:04.580Z,7.92
2019-01-17T09:06:32.347Z,8.10
2019-01-17T09:09:01.943Z,8.15
2019-01-17T09:11:29.380Z,7.55
2019-01-17T09:13:56.786Z,8.03
2019-01-17T09:16:24.544Z,7.62
2019-01-17T09:18:51.953Z,8.45
2019-01-17T09:21:19.401Z,8.30
2019-01-17T09:23:46.812Z,8.43
2019-01-17T09:26:14.230Z,7.83
2019-01-17T09:28:41.748Z,7.92
2019-01-17T09:31:09.158Z,7.90
2019-01-17T09:33:36.934Z,8.43
2019-01-17T09:36:04.398Z,7.80
2019-01-17T09:38:32.159Z,7.90
2019-01-17T09:40:59.565Z,8.70
2019-01-17T09:43:27.007Z,8.70
2019-01-17T09:45:54.425Z,9.57
2019-01-17T09:48:21.859Z,8.37
2019-01-17T09:50:49.551Z,9.20
2019-01-17T09:53:16.999Z,8.83
2019-01-17T09:55:44.401Z,9.83
2019-01-17T09:58:11.849Z,9.37
2019-01-17T10:00:39.264Z,10.37
2019-01-17T10:03:06.756Z,8.83
2019-01-17T10:05:34.625Z,11.03
2019-01-17T10:08:02.029Z,10.20
2019-01-17T10:10:29.462Z,11.10
2019-01-17T10:12:56.874Z,10.40
2019-01-17T10:15:29.085Z,10.67
2019-01-17T10:17:58.025Z,9.77
2019-01-17T10:20:36.067Z,10.73
2019-01-17T10:23:05.011Z,9.50
2019-01-17T10:25:52.474Z,9.60
2019-01-17T10:28:38.371Z,11.00
2019-01-17T10:31:10.348Z,10.23
2019-01-17T10:33:42.058Z,10.00
2019-01-17T10:36:27.535Z,11.13
2019-01-17T10:39:08.621Z,10.83
2019-01-17T10:41:43.259Z,11.22
2019-01-17T10:44:21.681Z,10.80
2019-01-17T10:47:07.390Z,10.38
2019-01-17T10:49:51.105Z,10.65
2019-01-17T10:52:20.086Z,10.10
2019-01-17T10:54:49.089Z,12.00
2019-01-17T10:57:18.974Z,11.40
2019-01-17T10:59:50.646Z,11.13
2019-01-17T11:02:36.358Z,11.63
2019-01-17T11:05:14.405Z,11.53
2019-01-17T11:07:52.105Z,11.97
2019-01-17T11:10:21.075Z,11.77
2019-01-17T11:13:05.327Z,11.90
2019-01-17T11:15:34.284Z,12.85
2019-01-17T11:18:04.230Z,12.53
2019-01-17T11:20:36.488Z,13.00
2019-01-17T11:23:23.388Z,13.20
2019-01-17T11:25:52.361Z,11.93
2019-01-17T11:28:33.880Z,12.50
2019-01-17T11:31:18.548Z,12.30
2019-01-17T11:33:47.597Z,13.20
2019-01-17T11:36:16.548Z,12.13
2019-01-17T11:38:48.171Z,11.30
2019-01-17T11:41:33.715Z,10.95
2019-01-17T11:44:05.603Z,11.73
2019-01-17T11:46:40.873Z,11.30
2019-01-17T11:49:27.867Z,12.05
2019-01-17T11:52:00.433Z,11.93
2019-01-17T11:54:45.938Z,11.65
2019-01-17T11:57:32.169Z,12.03
2019-01-17T12:00:01.143Z,11.03
2019-01-17T12:02:42.105Z,11.93
2019-01-17T12:05:09.532Z,11.20
2019-01-17T12:07:36.961Z,10.95
2019-01-17T12:10:05.721Z,10.90
2019-01-17T12:12:33.308Z,10.82
2019-01-17T12:15:01.057Z,9.55
2019-01-17T12:17:28.765Z,9.23
2019-01-17T12:19:56.189Z,10.30
2019-01-17T12:22:24.742Z,9.75
2019-01-17T12:24:52.257Z,9.40
2019-01-17T12:27:19.657Z,8.68
2019-01-17T12:29:47.435Z,9.78
2019-01-17T12:32:15.202Z,8.85
2019-01-17T12:34:42.644Z,8.63
2019-01-17T12:37:10.355Z,8.85
2019-01-17T12:39:37.753Z,8.55
2019-01-17T12:42:05.186Z,8.30
2019-01-17T12:44:32.934Z,7.92
2019-01-17T12:47:00.357Z,7.62
2019-01-17T12:49:28.126Z,7.40
2019-01-17T12:51:55.903Z,8.03
2019-01-17T12:54:23.309Z,7.47
2019-01-17T12:56:54.118Z,8.03
2019-01-17T12:59:19.928Z,9.00
2019-01-17T13:01:47.429Z,8.03
2019-01-17T13:04:14.864Z,8.50
2019-01-17T13:06:42.586Z,9.85
2019-01-17T13:09:10.358Z,9.43
2019-01-17T13:11:37.819Z,10.15
2019-01-17T13:14:05.406Z,10.40
2019-01-17T13:16:32.851Z,10.20
2019-01-17T13:19:00.804Z,10.40
2019-01-17T13:21:28.342Z,12.00
2019-01-17T13:23:56.126Z,11.40
2019-01-17T13:26:23.896Z,10.58
2019-01-17T13:28:51.349Z,10.43
2019-01-17T13:31:18.848Z,10.48
2019-01-17T13:33:46.581Z,10.48
2019-01-17T13:36:14.198Z,9.93
2019-01-17T13:38:41.766Z,9.90
2019-01-17T13:41:09.262Z,8.85
2019-01-17T13:43:37.024Z,8.88
2019-01-17T13:46:05.013Z,9.83
2019-01-17T13:48:32.489Z,9.40
2019-01-17T13:51:00.317Z,9.95
2019-01-17T13:53:27.744Z,8.50
2019-01-17T13:55:55.541Z,8.48
2019-01-17T13:58:22.949Z,7.75
2019-01-17T14:00:50.510Z,8.48
2019-01-17T14:03:17.994Z,7.78
2019-01-17T14:05:46.225Z,6.85
2019-01-17T14:08:13.724Z,7.15
2019-01-17T14:10:42.045Z,7.85
2019-01-17T14:13:09.486Z,7.25
2019-01-17T14:15:37.011Z,7.90
2019-01-17T14:18:05.153Z,7.08
2019-01-17T14:20:32.702Z,6.65
2019-01-17T14:23:00.253Z,6.53
2019-01-17T14:25:27.714Z,6.05
2019-01-17T14:27:55.218Z,6.40
2019-01-17T14:30:24.870Z,5.03
2019-01-17T14:32:52.326Z,4.85
2019-01-17T14:35:19.812Z,4.53
2019-01-17T14:37:47.494Z,4.65
2019-01-17T14:40:14.979Z,4.62
2019-01-17T14:42:42.581Z,4.30
2019-01-17T14:45:14.157Z,5.30
2019-01-17T14:47:41.641Z,4.90
2019-01-17T14:50:10.695Z,5.40
2019-01-17T14:52:38.198Z,4.85
2019-01-17T14:55:07.288Z,5.28
2019-01-17T14:57:34.950Z,5.50
2019-01-17T15:00:03.783Z,6.30
2019-01-17T15:02:31.507Z,6.58
2019-01-17T15:04:59.337Z,6.90
2019-01-17T15:07:26.898Z,7.67
2019-01-17T15:09:54.664Z,6.72
2019-01-17T15:12:22.170Z,6.87
2019-01-17T15:14:49.617Z,7.30
2019-01-17T15:17:17.552Z,6.62
2019-01-17T15:19:46.068Z,6.53
2019-01-17T15:22:13.551Z,7.20
2019-01-17T15:24:41.461Z,7.37
2019-01-17T15:27:09.068Z,6.90
2019-01-17T15:29:36.654Z,7.78
2019-01-17T15:32:04.184Z,7.92
2019-01-17T15:34:31.611Z,7.55
2019-01-17T15:36:59.176Z,8.33
2019-01-17T15:39:27.026Z,8.13
2019-01-17T15:41:55.300Z,8.03
2019-01-17T15:44:23.886Z,8.55
2019-01-17T15:46:51.306Z,9.65
2019-01-17T15:49:18.886Z,9.75
2019-01-17T15:51:46.283Z,7.97
2019-01-17T15:54:13.703Z,8.95
2019-01-17T15:56:41.154Z,9.30
2019-01-17T15:59:08.568Z,9.38
2019-01-17T16:01:35.986Z,6.78
2019-01-17T16:04:03.412Z,6.90
2019-01-17T16:06:30.808Z,6.65
2019-01-17T16:08:58.273Z,6.20
2019-01-17T16:11:25.732Z,7.35
2019-01-17T16:13:53.201Z,6.55
2019-01-17T16:16:20.784Z,6.70
2019-01-17T16:18:48.363Z,5.78
2019-01-17T16:21:15.782Z,5.58
2019-01-17T16:23:43.188Z,5.08
2019-01-17T16:26:10.661Z,5.78
2019-01-17T16:28:38.095Z,5.62
2019-01-17T16:31:05.477Z,5.67
2019-01-17T16:33:32.889Z,5.15
2019-01-17T16:36:00.329Z,8.73
2019-01-17T16:38:27.738Z,5.40
2019-01-17T16:40:55.209Z,4.80
2019-01-17T16:43:22.613Z,4.87
2019-01-17T16:45:50.021Z,4.90
2019-01-17T16:48:17.551Z,4.20
2019-01-17T16:50:45.009Z,4.40
2019-01-17T16:53:12.431Z,5.33
2019-01-17T16:55:40.023Z,4.47
2019-01-17T16:58:07.717Z,4.20
2019-01-17T17:00:36.526Z,4.50
2019-01-17T17:03:04.009Z,4.40
2019-01-17T17:05:31.500Z,5.20
2019-01-17T17:07:58.901Z,4.25
2019-01-17T17:10:26.321Z,4.45
2019-01-17T17:12:53.734Z,3.80
2019-01-17T17:15:21.221Z,3.80
2019-01-17T17:17:48.711Z,3.20
2019-01-17T17:20:17.680Z,4.40
2019-01-17T17:22:45.087Z,3.60
2019-01-17T17:25:12.548Z,3.50
2019-01-17T17:27:41.208Z,3.40
2019-01-17T17:30:16.581Z,3.67
2019-01-17T17:32:45.337Z,3.80
2019-01-17T17:35:14.080Z,3.35
2019-01-17T17:37:42.616Z,3.17
2019-01-17T17:40:16.465Z,3.25
2019-01-17T17:42:45.517Z,3.00
2019-01-17T17:45:13.836Z,2.70
2019-01-17T17:47:41.592Z,2.60
2019-01-17T17:50:15.040Z,2.90
2019-01-17T17:52:43.840Z,2.72
2019-01-17T17:55:13.559Z,2.30
2019-01-17T17:57:42.132Z,2.30
2019-01-17T18:00:12.570Z,2.52
2019-01-17T18:02:41.609Z,2.60
2019-01-17T18:05:10.515Z,3.08
2019-01-17T18:07:40.098Z,2.55
2019-01-17T18:10:13.584Z,2.25
2019-01-17T18:12:42.341Z,2.40
2019-01-17T18:15:11.871Z,2.25
2019-01-17T18:17:42.662Z,2.25
2019-01-17T18:20:12.141Z,2.70
2019-01-17T18:22:39.889Z,2.90
2019-01-17T18:25:09.234Z,2.83
2019-01-17T18:27:37.313Z,2.30
2019-01-17T18:30:10.156Z,2.22
2019-01-17T18:32:38.897Z,1.87
2019-01-17T18:35:07.351Z,2.30
2019-01-17T18:37:37.158Z,2.27
2019-01-17T18:40:07.177Z,2.17
2019-01-17T18:42:36.700Z,2.80
2019-01-17T18:45:06.602Z,3.00
2019-01-17T18:47:35.423Z,3.10
2019-01-17T18:50:04.764Z,3.85
2019-01-17T18:52:33.527Z,3.98
2019-01-17T18:55:02.866Z,3.85
2019-01-17T18:57:30.618Z,3.75
2019-01-17T18:59:59.155Z,4.00
2019-01-17T19:02:27.842Z,4.37
2019-01-17T19:04:56.550Z,4.00
2019-01-17T19:07:24.504Z,4.87
2019-01-17T19:09:52.972Z,4.28
2019-01-17T19:12:21.124Z,4.33
2019-01-17T19:14:49.755Z,5.20
2019-01-17T19:17:19.868Z,4.85
2019-01-17T19:19:51.069Z,5.10
2019-01-17T19:22:22.114Z,4.80
2019-01-17T19:24:50.801Z,4.20
2019-01-17T19:27:19.766Z,6.00
2019-01-17T19:29:48.690Z,5.75
2019-01-17T19:32:17.230Z,4.62
2019-01-17T19:34:45.614Z,4.45
2019-01-17T19:37:14.325Z,5.60
2019-01-17T19:39:42.966Z,5.83
2019-01-17T19:42:13.146Z,5.62
2019-01-17T19:44:42.080Z,5.08
2019-01-17T19:47:10.352Z,5.10
2019-01-17T19:49:38.860Z,4.40
2019-01-17T19:52:10.617Z,4.62
2019-01-17T19:54:39.464Z,4.15
2019-01-17T19:57:08.013Z,5.67
2019-01-17T19:59:36.715Z,4.22
2019-01-17T20:02:05.899Z,4.03
2019-01-17T20:04:41.677Z,4.10
2019-01-17T20:07:07.546Z,3.77
2019-01-17T20:09:35.104Z,2.90
2019-01-17T20:12:02.650Z,2.37
2019-01-17T20:14:30.101Z,2.92
2019-01-17T20:16:57.534Z,3.08
2019-01-17T20:19:25.024Z,2.83
2019-01-17T20:21:52.501Z,4.75
2019-01-17T20:24:19.917Z,3.40
2019-01-17T20:26:47.379Z,3.30
2019-01-17T20:29:14.777Z,3.25
2019-01-17T20:31:42.242Z,2.70
2019-01-17T20:34:09.632Z,2.55
2019-01-17T20:36:37.111Z,3.00
2019-01-17T20:39:06.334Z,3.05
2019-01-17T20:41:34.605Z,2.52
2019-01-17T20:44:02.007Z,2.50
2019-01-17T20:46:29.460Z,2.25
2019-01-17T20:48:56.895Z,2.70
2019-01-17T20:51:25.171Z,4.95
2019-01-17T20:53:52.728Z,2.47
2019-01-17T20:56:20.321Z,2.65
2019-01-17T20:58:47.735Z,3.12
2019-01-17T21:01:16.677Z,2.77
2019-01-17T21:03:44.098Z,2.52
2019-01-17T21:06:11.508Z,2.90
2019-01-17T21:08:38.990Z,2.70
2019-01-17T21:11:06.399Z,2.58
2019-01-17T21:13:33.836Z,3.20
2019-01-17T21:16:01.532Z,3.95
2019-01-17T21:18:29.091Z,4.10
2019-01-17T21:20:56.498Z,3.70
2019-01-17T21:23:23.985Z,4.25
2019-01-17T21:25:51.360Z,4.78
2019-01-17T21:28:18.821Z,4.95
2019-01-17T21:30:46.291Z,4.95
2019-01-17T21:33:13.710Z,5.12
2019-01-17T21:35:41.138Z,5.20
2019-01-17T21:38:08.594Z,4.55
2019-01-17T21:40:36.079Z,4.33
2019-01-17T21:43:03.477Z,4.50
2019-01-17T21:45:30.891Z,4.87
2019-01-17T21:47:58.289Z,4.33
2019-01-17T21:50:26.990Z,4.10
2019-01-17T21:52:54.405Z,4.10
2019-01-17T21:55:21.817Z,5.35
2019-01-17T21:57:49.229Z,4.47
2019-01-17T22:00:37.490Z,5.10
2019-01-17T22:03:04.880Z,5.22
2019-01-17T22:05:32.408Z,6.40
2019-01-17T22:07:59.812Z,3.80
2019-01-17T22:10:27.272Z,5.08
2019-01-17T22:12:54.697Z,3.85
2019-01-17T22:15:42.999Z,5.97
2019-01-17T22:18:10.738Z,5.42
2019-01-17T22:20:38.275Z,5.37
2019-01-17T22:23:05.724Z,5.00
2019-01-17T22:25:33.363Z,5.35
2019-01-17T22:28:00.957Z,7.10
2019-01-17T22:30:29.191Z,3.08
2019-01-17T22:32:58.643Z,5.70
2019-01-17T22:35:26.769Z,5.10
2019-01-17T22:37:54.299Z,4.42
2019-01-17T22:40:21.901Z,4.22
2019-01-17T22:42:49.510Z,4.85
2019-01-17T22:45:18.793Z,4.75
2019-01-17T22:47:46.458Z,3.50
2019-01-17T22:50:17.642Z,3.95
2019-01-17T22:52:45.531Z,4.20
2019-01-17T22:55:13.060Z,3.20
2019-01-17T22:57:40.984Z,3.80
2019-01-17T23:00:10.141Z,4.45
2019-01-17T23:02:38.044Z,3.67
2019-01-17T23:05:05.865Z,4.08
2019-01-17T23:07:33.720Z,4.28
2019-01-17T23:10:01.652Z,4.60
2019-01-17T23:12:29.178Z,4.30
2019-01-17T23:14:56.765Z,3.60
2019-01-17T23:17:24.692Z,4.30
2019-01-17T23:19:52.133Z,4.22
2019-01-17T23:22:19.672Z,6.15
2019-01-17T23:24:47.183Z,4.35
2019-01-17T23:27:14.632Z,4.25
2019-01-17T23:29:42.029Z,4.17
2019-01-17T23:32:10.013Z,3.50
2019-01-17T23:34:37.441Z,4.25
2019-01-17T23:37:04.859Z,4.70
2019-01-17T23:39:32.332Z,4.35
2019-01-17T23:41:59.697Z,3.95
2019-01-17T23:44:27.095Z,4.10
2019-01-17T23:46:54.505Z,4.15
2019-01-17T23:49:21.909Z,4.15
2019-01-17T23:51:49.367Z,3.98
2019-01-17T23:54:16.748Z,3.60
2019-01-17T23:56:44.148Z,3.62
2019-01-17T23:59:11.585Z,3.50
